sensor_id;sensor_type;location;lat;lon;timestamp;P1;durP1;ratioP1;P2;durP2;ratioP2
77105;SDS011;66057;54.718;18.426;2023-02-16T00:00:46;116.60;;;42.45;;
77105;SDS011;66057;54.718;18.426;2023-02-16T00:03:32;83.25;;;32.13;;
77105;SDS011;66057;54.718;18.426;2023-02-16T00:05:58;98.32;;;36.28;;
77105;SDS011;66057;54.718;18.426;2023-02-16T00:08:24;89.40;;;28.77;;
77105;SDS011;66057;54.718;18.426;2023-02-16T00:10:50;110.13;;;34.97;;
77105;SDS011;66057;54.718;18.426;2023-02-16T00:13:34;89.72;;;28.83;;
77105;SDS011;66057;54.718;18.426;2023-02-16T00:16:18;76.32;;;28.23;;
77105;SDS011;66057;54.718;18.426;2023-02-16T00:18:46;73.63;;;28.63;;
77105;SDS011;66057;54.718;18.426;2023-02-16T00:21:12;97.15;;;36.65;;
77105;SDS011;66057;54.718;18.426;2023-02-16T00:23:39;91.45;;;33.40;;
77105;SDS011;66057;54.718;18.426;2023-02-16T00:26:09;40.47;;;20.00;;
77105;SDS011;66057;54.718;18.426;2023-02-16T00:28:50;97.28;;;36.05;;
77105;SDS011;66057;54.718;18.426;2023-02-16T00:31:24;101.05;;;34.30;;
77105;SDS011;66057;54.718;18.426;2023-02-16T00:33:51;81.78;;;36.75;;
77105;SDS011;66057;54.718;18.426;2023-02-16T00:36:17;101.40;;;35.58;;
77105;SDS011;66057;54.718;18.426;2023-02-16T00:38:43;71.60;;;29.75;;
77105;SDS011;66057;54.718;18.426;2023-02-16T00:41:13;26.05;;;16.40;;
77105;SDS011;66057;54.718;18.426;2023-02-16T00:44:03;95.05;;;35.17;;
77105;SDS011;66057;54.718;18.426;2023-02-16T00:46:30;75.30;;;32.22;;
77105;SDS011;66057;54.718;18.426;2023-02-16T00:48:56;77.55;;;31.35;;
77105;SDS011;66057;54.718;18.426;2023-02-16T00:51:22;93.05;;;32.33;;
77105;SDS011;66057;54.718;18.426;2023-02-16T00:53:47;56.72;;;24.58;;
77105;SDS011;66057;54.718;18.426;2023-02-16T00:56:15;45.05;;;27.10;;
77105;SDS011;66057;54.718;18.426;2023-02-16T00:58:44;86.90;;;36.10;;
77105;SDS011;66057;54.718;18.426;2023-02-16T01:01:14;80.07;;;28.63;;
77105;SDS011;66057;54.718;18.426;2023-02-16T01:03:41;66.00;;;28.80;;
77105;SDS011;66057;54.718;18.426;2023-02-16T01:06:09;87.72;;;31.17;;
77105;SDS011;66057;54.718;18.426;2023-02-16T01:08:54;79.65;;;31.45;;
77105;SDS011;66057;54.718;18.426;2023-02-16T01:11:43;71.88;;;38.15;;
77105;SDS011;66057;54.718;18.426;2023-02-16T01:14:10;74.00;;;32.13;;
77105;SDS011;66057;54.718;18.426;2023-02-16T01:16:39;16.48;;;9.05;;
77105;SDS011;66057;54.718;18.426;2023-02-16T01:19:05;36.40;;;16.33;;
77105;SDS011;66057;54.718;18.426;2023-02-16T01:21:32;33.10;;;19.45;;
77105;SDS011;66057;54.718;18.426;2023-02-16T01:23:57;72.15;;;36.45;;
77105;SDS011;66057;54.718;18.426;2023-02-16T01:26:23;68.57;;;33.47;;
77105;SDS011;66057;54.718;18.426;2023-02-16T01:28:49;79.75;;;37.60;;
77105;SDS011;66057;54.718;18.426;2023-02-16T01:31:15;104.15;;;49.50;;
77105;SDS011;66057;54.718;18.426;2023-02-16T01:33:41;98.20;;;48.35;;
77105;SDS011;66057;54.718;18.426;2023-02-16T01:36:42;86.50;;;42.50;;
77105;SDS011;66057;54.718;18.426;2023-02-16T01:39:08;105.10;;;47.25;;
77105;SDS011;66057;54.718;18.426;2023-02-16T01:44:28;94.38;;;46.45;;
77105;SDS011;66057;54.718;18.426;2023-02-16T01:47:01;79.13;;;37.88;;
77105;SDS011;66057;54.718;18.426;2023-02-16T01:49:35;73.13;;;35.45;;
77105;SDS011;66057;54.718;18.426;2023-02-16T01:57:26;27.38;;;15.77;;
77105;SDS011;66057;54.718;18.426;2023-02-16T02:00:12;99.05;;;45.85;;
77105;SDS011;66057;54.718;18.426;2023-02-16T02:02:48;99.40;;;44.17;;
77105;SDS011;66057;54.718;18.426;2023-02-16T02:13:11;52.65;;;19.73;;
77105;SDS011;66057;54.718;18.426;2023-02-16T02:15:44;59.00;;;30.10;;
77105;SDS011;66057;54.718;18.426;2023-02-16T02:18:10;88.13;;;33.70;;
77105;SDS011;66057;54.718;18.426;2023-02-16T02:20:40;29.67;;;15.68;;
77105;SDS011;66057;54.718;18.426;2023-02-16T02:29:11;21.27;;;12.63;;
77105;SDS011;66057;54.718;18.426;2023-02-16T02:45:44;30.60;;;16.73;;
77105;SDS011;66057;54.718;18.426;2023-02-16T02:48:28;60.55;;;24.48;;
77105;SDS011;66057;54.718;18.426;2023-02-16T02:50:59;55.85;;;27.77;;
77105;SDS011;66057;54.718;18.426;2023-02-16T02:53:59;74.07;;;34.95;;
77105;SDS011;66057;54.718;18.426;2023-02-16T02:56:47;50.38;;;24.60;;
77105;SDS011;66057;54.718;18.426;2023-02-16T02:59:38;78.32;;;33.45;;
77105;SDS011;66057;54.718;18.426;2023-02-16T03:02:34;61.90;;;28.30;;
77105;SDS011;66057;54.718;18.426;2023-02-16T03:05:02;52.25;;;26.90;;
77105;SDS011;66057;54.718;18.426;2023-02-16T03:07:32;46.67;;;23.85;;
77105;SDS011;66057;54.718;18.426;2023-02-16T03:10:34;89.68;;;33.25;;
77105;SDS011;66057;54.718;18.426;2023-02-16T03:13:20;114.70;;;51.28;;
77105;SDS011;66057;54.718;18.426;2023-02-16T03:15:50;108.07;;;45.20;;
77105;SDS011;66057;54.718;18.426;2023-02-16T03:18:20;123.65;;;52.67;;
77105;SDS011;66057;54.718;18.426;2023-02-16T03:21:09;102.43;;;44.28;;
77105;SDS011;66057;54.718;18.426;2023-02-16T03:23:57;91.90;;;43.35;;
77105;SDS011;66057;54.718;18.426;2023-02-16T03:26:44;159.45;;;75.30;;
77105;SDS011;66057;54.718;18.426;2023-02-16T03:29:31;121.55;;;51.88;;
77105;SDS011;66057;54.718;18.426;2023-02-16T03:31:57;139.60;;;62.28;;
77105;SDS011;66057;54.718;18.426;2023-02-16T03:34:23;125.30;;;52.53;;
77105;SDS011;66057;54.718;18.426;2023-02-16T03:36:51;137.80;;;58.53;;
77105;SDS011;66057;54.718;18.426;2023-02-16T03:39:23;140.90;;;64.53;;
77105;SDS011;66057;54.718;18.426;2023-02-16T03:41:50;146.48;;;62.15;;
77105;SDS011;66057;54.718;18.426;2023-02-16T03:44:18;140.68;;;59.72;;
77105;SDS011;66057;54.718;18.426;2023-02-16T03:46:44;155.98;;;67.75;;
77105;SDS011;66057;54.718;18.426;2023-02-16T03:49:10;158.15;;;68.82;;
77105;SDS011;66057;54.718;18.426;2023-02-16T03:51:36;140.10;;;62.13;;
77105;SDS011;66057;54.718;18.426;2023-02-16T03:54:02;110.10;;;42.20;;
77105;SDS011;66057;54.718;18.426;2023-02-16T03:56:27;153.52;;;65.65;;
77105;SDS011;66057;54.718;18.426;2023-02-16T03:58:53;130.45;;;55.97;;
77105;SDS011;66057;54.718;18.426;2023-02-16T04:01:19;145.73;;;61.28;;
77105;SDS011;66057;54.718;18.426;2023-02-16T04:03:44;120.93;;;53.28;;
77105;SDS011;66057;54.718;18.426;2023-02-16T04:06:10;158.57;;;67.18;;
77105;SDS011;66057;54.718;18.426;2023-02-16T04:08:36;148.23;;;61.05;;
77105;SDS011;66057;54.718;18.426;2023-02-16T04:11:01;157.13;;;72.63;;
77105;SDS011;66057;54.718;18.426;2023-02-16T04:13:47;179.02;;;82.22;;
77105;SDS011;66057;54.718;18.426;2023-02-16T04:16:13;116.07;;;49.75;;
77105;SDS011;66057;54.718;18.426;2023-02-16T04:18:38;189.65;;;83.75;;
77105;SDS011;66057;54.718;18.426;2023-02-16T04:21:04;151.20;;;66.60;;
77105;SDS011;66057;54.718;18.426;2023-02-16T04:23:30;181.40;;;89.72;;
77105;SDS011;66057;54.718;18.426;2023-02-16T04:25:55;141.10;;;58.17;;
77105;SDS011;66057;54.718;18.426;2023-02-16T04:28:21;148.40;;;71.15;;
77105;SDS011;66057;54.718;18.426;2023-02-16T04:30:47;156.70;;;76.95;;
77105;SDS011;66057;54.718;18.426;2023-02-16T04:33:12;153.85;;;67.30;;
77105;SDS011;66057;54.718;18.426;2023-02-16T04:35:38;130.68;;;53.45;;
77105;SDS011;66057;54.718;18.426;2023-02-16T04:38:04;122.35;;;53.25;;
77105;SDS011;66057;54.718;18.426;2023-02-16T04:40:29;125.70;;;56.45;;
77105;SDS011;66057;54.718;18.426;2023-02-16T04:42:55;151.57;;;71.28;;
77105;SDS011;66057;54.718;18.426;2023-02-16T04:45:21;122.25;;;50.28;;
77105;SDS011;66057;54.718;18.426;2023-02-16T04:47:47;87.93;;;35.58;;
77105;SDS011;66057;54.718;18.426;2023-02-16T04:50:12;108.03;;;45.47;;
77105;SDS011;66057;54.718;18.426;2023-02-16T04:52:38;98.40;;;46.40;;
77105;SDS011;66057;54.718;18.426;2023-02-16T04:55:04;90.75;;;43.33;;
77105;SDS011;66057;54.718;18.426;2023-02-16T04:57:32;87.85;;;39.97;;
77105;SDS011;66057;54.718;18.426;2023-02-16T04:59:57;91.00;;;41.38;;
77105;SDS011;66057;54.718;18.426;2023-02-16T05:02:23;61.55;;;25.02;;
77105;SDS011;66057;54.718;18.426;2023-02-16T05:04:49;103.25;;;49.75;;
77105;SDS011;66057;54.718;18.426;2023-02-16T05:07:14;81.55;;;35.60;;
77105;SDS011;66057;54.718;18.426;2023-02-16T05:09:40;111.05;;;55.67;;
77105;SDS011;66057;54.718;18.426;2023-02-16T05:12:06;102.65;;;47.40;;
77105;SDS011;66057;54.718;18.426;2023-02-16T05:14:50;122.25;;;55.67;;
77105;SDS011;66057;54.718;18.426;2023-02-16T05:17:17;111.20;;;50.10;;
77105;SDS011;66057;54.718;18.426;2023-02-16T05:19:48;67.18;;;27.30;;
77105;SDS011;66057;54.718;18.426;2023-02-16T05:22:17;62.88;;;24.40;;
77105;SDS011;66057;54.718;18.426;2023-02-16T05:24:43;56.47;;;19.48;;
77105;SDS011;66057;54.718;18.426;2023-02-16T05:27:28;79.97;;;30.23;;
77105;SDS011;66057;54.718;18.426;2023-02-16T05:29:54;90.97;;;44.60;;
77105;SDS011;66057;54.718;18.426;2023-02-16T05:32:20;99.13;;;41.47;;
77105;SDS011;66057;54.718;18.426;2023-02-16T05:34:46;79.95;;;40.42;;
77105;SDS011;66057;54.718;18.426;2023-02-16T05:37:13;73.95;;;31.15;;
77105;SDS011;66057;54.718;18.426;2023-02-16T05:42:06;95.25;;;40.67;;
77105;SDS011;66057;54.718;18.426;2023-02-16T05:44:31;94.43;;;41.40;;
77105;SDS011;66057;54.718;18.426;2023-02-16T05:46:57;92.22;;;41.45;;
77105;SDS011;66057;54.718;18.426;2023-02-16T05:49:23;76.97;;;31.73;;
77105;SDS011;66057;54.718;18.426;2023-02-16T05:51:49;42.95;;;21.25;;
77105;SDS011;66057;54.718;18.426;2023-02-16T05:54:14;105.82;;;43.65;;
77105;SDS011;66057;54.718;18.426;2023-02-16T05:56:43;62.67;;;30.65;;
77105;SDS011;66057;54.718;18.426;2023-02-16T06:01:36;48.40;;;22.15;;
77105;SDS011;66057;54.718;18.426;2023-02-16T06:04:05;83.25;;;31.05;;
77105;SDS011;66057;54.718;18.426;2023-02-16T06:06:35;71.65;;;35.10;;
77105;SDS011;66057;54.718;18.426;2023-02-16T06:09:02;97.00;;;34.00;;
77105;SDS011;66057;54.718;18.426;2023-02-16T06:11:29;65.15;;;26.77;;
77105;SDS011;66057;54.718;18.426;2023-02-16T06:14:01;58.92;;;24.48;;
77105;SDS011;66057;54.718;18.426;2023-02-16T06:16:29;94.28;;;33.58;;
77105;SDS011;66057;54.718;18.426;2023-02-16T06:18:55;82.80;;;31.67;;
77105;SDS011;66057;54.718;18.426;2023-02-16T06:21:22;83.68;;;38.50;;
77105;SDS011;66057;54.718;18.426;2023-02-16T06:23:49;68.35;;;24.30;;
77105;SDS011;66057;54.718;18.426;2023-02-16T06:26:15;58.85;;;22.00;;
77105;SDS011;66057;54.718;18.426;2023-02-16T06:28:41;95.93;;;42.78;;
77105;SDS011;66057;54.718;18.426;2023-02-16T06:31:07;78.07;;;27.55;;
77105;SDS011;66057;54.718;18.426;2023-02-16T06:33:33;70.32;;;27.20;;
77105;SDS011;66057;54.718;18.426;2023-02-16T06:35:59;107.80;;;51.13;;
77105;SDS011;66057;54.718;18.426;2023-02-16T06:38:24;62.80;;;24.77;;
77105;SDS011;66057;54.718;18.426;2023-02-16T06:40:53;85.50;;;34.35;;
77105;SDS011;66057;54.718;18.426;2023-02-16T06:43:19;43.80;;;21.90;;
77105;SDS011;66057;54.718;18.426;2023-02-16T06:45:46;76.97;;;30.58;;
77105;SDS011;66057;54.718;18.426;2023-02-16T06:48:11;72.60;;;27.17;;
77105;SDS011;66057;54.718;18.426;2023-02-16T06:50:38;73.13;;;28.88;;
77105;SDS011;66057;54.718;18.426;2023-02-16T06:53:03;89.38;;;40.80;;
77105;SDS011;66057;54.718;18.426;2023-02-16T06:55:29;69.93;;;31.98;;
77105;SDS011;66057;54.718;18.426;2023-02-16T06:57:58;99.65;;;44.67;;
77105;SDS011;66057;54.718;18.426;2023-02-16T07:00:24;107.00;;;47.55;;
77105;SDS011;66057;54.718;18.426;2023-02-16T07:02:50;96.47;;;49.47;;
77105;SDS011;66057;54.718;18.426;2023-02-16T07:05:16;84.18;;;36.35;;
77105;SDS011;66057;54.718;18.426;2023-02-16T07:07:42;80.78;;;33.63;;
77105;SDS011;66057;54.718;18.426;2023-02-16T07:10:08;54.15;;;25.77;;
77105;SDS011;66057;54.718;18.426;2023-02-16T07:12:34;39.13;;;17.73;;
77105;SDS011;66057;54.718;18.426;2023-02-16T07:15:00;64.93;;;27.73;;
77105;SDS011;66057;54.718;18.426;2023-02-16T07:17:25;57.60;;;22.60;;
77105;SDS011;66057;54.718;18.426;2023-02-16T07:19:51;64.93;;;23.83;;
77105;SDS011;66057;54.718;18.426;2023-02-16T07:22:17;75.57;;;31.15;;
77105;SDS011;66057;54.718;18.426;2023-02-16T07:24:42;81.63;;;35.97;;
77105;SDS011;66057;54.718;18.426;2023-02-16T07:27:08;55.53;;;23.52;;
77105;SDS011;66057;54.718;18.426;2023-02-16T07:29:34;77.15;;;26.52;;
77105;SDS011;66057;54.718;18.426;2023-02-16T07:32:00;52.78;;;22.63;;
77105;SDS011;66057;54.718;18.426;2023-02-16T07:34:28;60.25;;;30.23;;
77105;SDS011;66057;54.718;18.426;2023-02-16T07:36:53;43.17;;;23.50;;
77105;SDS011;66057;54.718;18.426;2023-02-16T07:39:19;51.03;;;19.55;;
77105;SDS011;66057;54.718;18.426;2023-02-16T07:41:44;63.80;;;19.50;;
77105;SDS011;66057;54.718;18.426;2023-02-16T07:44:10;51.67;;;24.30;;
77105;SDS011;66057;54.718;18.426;2023-02-16T07:46:36;50.42;;;22.13;;
77105;SDS011;66057;54.718;18.426;2023-02-16T07:49:02;52.70;;;25.63;;
77105;SDS011;66057;54.718;18.426;2023-02-16T07:51:28;41.63;;;21.65;;
77105;SDS011;66057;54.718;18.426;2023-02-16T07:53:56;72.35;;;36.65;;
77105;SDS011;66057;54.718;18.426;2023-02-16T07:56:24;60.55;;;23.83;;
77105;SDS011;66057;54.718;18.426;2023-02-16T07:58:52;75.30;;;37.22;;
77105;SDS011;66057;54.718;18.426;2023-02-16T08:01:20;52.10;;;23.20;;
77105;SDS011;66057;54.718;18.426;2023-02-16T08:03:46;54.38;;;19.05;;
77105;SDS011;66057;54.718;18.426;2023-02-16T08:06:12;48.83;;;17.60;;
77105;SDS011;66057;54.718;18.426;2023-02-16T08:08:39;78.20;;;36.20;;
77105;SDS011;66057;54.718;18.426;2023-02-16T08:11:12;61.42;;;28.33;;
77105;SDS011;66057;54.718;18.426;2023-02-16T08:13:40;60.22;;;27.85;;
77105;SDS011;66057;54.718;18.426;2023-02-16T08:16:06;58.33;;;31.00;;
77105;SDS011;66057;54.718;18.426;2023-02-16T08:18:36;43.55;;;15.20;;
77105;SDS011;66057;54.718;18.426;2023-02-16T08:21:06;42.08;;;18.63;;
77105;SDS011;66057;54.718;18.426;2023-02-16T08:23:39;26.42;;;12.02;;
77105;SDS011;66057;54.718;18.426;2023-02-16T08:26:10;46.33;;;19.25;;
77105;SDS011;66057;54.718;18.426;2023-02-16T08:28:36;37.63;;;17.60;;
77105;SDS011;66057;54.718;18.426;2023-02-16T08:31:03;55.65;;;28.75;;
77105;SDS011;66057;54.718;18.426;2023-02-16T08:33:30;51.38;;;23.63;;
77105;SDS011;66057;54.718;18.426;2023-02-16T08:35:57;39.00;;;16.50;;
77105;SDS011;66057;54.718;18.426;2023-02-16T08:38:23;49.97;;;19.73;;
77105;SDS011;66057;54.718;18.426;2023-02-16T08:40:49;45.10;;;19.13;;
77105;SDS011;66057;54.718;18.426;2023-02-16T08:43:15;32.47;;;13.55;;
77105;SDS011;66057;54.718;18.426;2023-02-16T08:45:47;43.88;;;19.17;;
77105;SDS011;66057;54.718;18.426;2023-02-16T08:48:13;27.95;;;11.98;;
77105;SDS011;66057;54.718;18.426;2023-02-16T08:50:43;48.38;;;17.25;;
77105;SDS011;66057;54.718;18.426;2023-02-16T08:53:12;34.53;;;18.83;;
77105;SDS011;66057;54.718;18.426;2023-02-16T08:55:38;29.45;;;14.18;;
77105;SDS011;66057;54.718;18.426;2023-02-16T08:58:04;34.55;;;15.65;;
77105;SDS011;66057;54.718;18.426;2023-02-16T09:00:30;51.53;;;18.17;;
77105;SDS011;66057;54.718;18.426;2023-02-16T09:02:59;33.40;;;17.33;;
77105;SDS011;66057;54.718;18.426;2023-02-16T09:05:25;34.17;;;12.48;;
77105;SDS011;66057;54.718;18.426;2023-02-16T09:07:52;47.75;;;25.52;;
77105;SDS011;66057;54.718;18.426;2023-02-16T09:10:18;25.90;;;8.77;;
77105;SDS011;66057;54.718;18.426;2023-02-16T09:12:47;19.63;;;9.40;;
77105;SDS011;66057;54.718;18.426;2023-02-16T09:15:14;23.30;;;10.60;;
77105;SDS011;66057;54.718;18.426;2023-02-16T09:17:41;32.35;;;14.43;;
77105;SDS011;66057;54.718;18.426;2023-02-16T09:20:08;45.38;;;23.67;;
77105;SDS011;66057;54.718;18.426;2023-02-16T09:22:34;50.65;;;26.90;;
77105;SDS011;66057;54.718;18.426;2023-02-16T09:24:59;46.10;;;23.23;;
77105;SDS011;66057;54.718;18.426;2023-02-16T09:27:25;32.13;;;14.57;;
77105;SDS011;66057;54.718;18.426;2023-02-16T09:29:51;21.00;;;10.45;;
77105;SDS011;66057;54.718;18.426;2023-02-16T09:32:17;68.63;;;31.88;;
77105;SDS011;66057;54.718;18.426;2023-02-16T09:34:43;69.90;;;34.92;;
77105;SDS011;66057;54.718;18.426;2023-02-16T09:37:09;74.65;;;36.40;;
77105;SDS011;66057;54.718;18.426;2023-02-16T09:39:35;69.00;;;33.90;;
77105;SDS011;66057;54.718;18.426;2023-02-16T09:44:51;62.63;;;31.95;;
77105;SDS011;66057;54.718;18.426;2023-02-16T09:47:23;49.78;;;14.45;;
77105;SDS011;66057;54.718;18.426;2023-02-16T09:49:53;31.13;;;15.90;;
77105;SDS011;66057;54.718;18.426;2023-02-16T09:55:05;42.63;;;17.80;;
77105;SDS011;66057;54.718;18.426;2023-02-16T10:00:40;54.70;;;26.02;;
77105;SDS011;66057;54.718;18.426;2023-02-16T10:03:17;41.55;;;18.25;;
77105;SDS011;66057;54.718;18.426;2023-02-16T10:08:49;55.35;;;23.42;;
77105;SDS011;66057;54.718;18.426;2023-02-16T10:11:24;55.92;;;23.88;;
77105;SDS011;66057;54.718;18.426;2023-02-16T10:19:54;65.00;;;28.67;;
77105;SDS011;66057;54.718;18.426;2023-02-16T10:22:35;100.95;;;48.03;;
77105;SDS011;66057;54.718;18.426;2023-02-16T10:27:43;80.00;;;36.38;;
77105;SDS011;66057;54.718;18.426;2023-02-16T10:30:12;95.78;;;42.10;;
77105;SDS011;66057;54.718;18.426;2023-02-16T10:33:01;62.30;;;23.75;;
77105;SDS011;66057;54.718;18.426;2023-02-16T10:38:13;26.45;;;14.50;;
77105;SDS011;66057;54.718;18.426;2023-02-16T10:40:59;41.55;;;18.50;;
77105;SDS011;66057;54.718;18.426;2023-02-16T10:44:34;74.07;;;31.33;;
77105;SDS011;66057;54.718;18.426;2023-02-16T10:46:35;43.83;;;22.05;;
77105;SDS011;66057;54.718;18.426;2023-02-16T10:49:07;41.95;;;15.93;;
77105;SDS011;66057;54.718;18.426;2023-02-16T10:51:37;69.00;;;33.08;;
77105;SDS011;66057;54.718;18.426;2023-02-16T10:54:06;73.38;;;35.88;;
77105;SDS011;66057;54.718;18.426;2023-02-16T10:59:43;51.78;;;20.83;;
77105;SDS011;66057;54.718;18.426;2023-02-16T11:04:48;59.13;;;22.50;;
77105;SDS011;66057;54.718;18.426;2023-02-16T11:07:17;13.82;;;8.73;;
77105;SDS011;66057;54.718;18.426;2023-02-16T11:09:47;67.50;;;26.00;;
77105;SDS011;66057;54.718;18.426;2023-02-16T11:15:01;53.33;;;21.02;;
77105;SDS011;66057;54.718;18.426;2023-02-16T11:20:34;60.95;;;24.67;;
77105;SDS011;66057;54.718;18.426;2023-02-16T11:25:52;64.90;;;25.20;;
77105;SDS011;66057;54.718;18.426;2023-02-16T11:28:24;58.25;;;24.42;;
77105;SDS011;66057;54.718;18.426;2023-02-16T11:33:53;49.80;;;18.42;;
77105;SDS011;66057;54.718;18.426;2023-02-16T11:36:36;46.40;;;17.38;;
77105;SDS011;66057;54.718;18.426;2023-02-16T11:41:50;48.17;;;19.05;;
77105;SDS011;66057;54.718;18.426;2023-02-16T11:44:25;54.75;;;17.88;;
77105;SDS011;66057;54.718;18.426;2023-02-16T11:46:55;49.65;;;17.38;;
77105;SDS011;66057;54.718;18.426;2023-02-16T11:51:54;42.75;;;18.98;;
77105;SDS011;66057;54.718;18.426;2023-02-16T11:54:20;36.05;;;16.98;;
77105;SDS011;66057;54.718;18.426;2023-02-16T11:59:34;43.22;;;18.48;;
77105;SDS011;66057;54.718;18.426;2023-02-16T12:16:27;47.00;;;16.60;;
77105;SDS011;66057;54.718;18.426;2023-02-16T12:19:24;43.15;;;18.00;;
77105;SDS011;66057;54.718;18.426;2023-02-16T12:22:07;45.92;;;18.20;;
77105;SDS011;66057;54.718;18.426;2023-02-16T12:27:17;43.53;;;18.08;;
77105;SDS011;66057;54.718;18.426;2023-02-16T12:35:57;45.88;;;18.38;;
77105;SDS011;66057;54.718;18.426;2023-02-16T12:44:31;51.75;;;20.83;;
77105;SDS011;66057;54.718;18.426;2023-02-16T12:47:02;52.97;;;20.83;;
77105;SDS011;66057;54.718;18.426;2023-02-16T12:49:47;55.63;;;23.98;;
77105;SDS011;66057;54.718;18.426;2023-02-16T12:52:30;57.78;;;21.83;;
77105;SDS011;66057;54.718;18.426;2023-02-16T12:55:16;54.17;;;20.92;;
77105;SDS011;66057;54.718;18.426;2023-02-16T12:57:54;55.97;;;20.40;;
77105;SDS011;66057;54.718;18.426;2023-02-16T13:08:50;47.60;;;17.33;;
77105;SDS011;66057;54.718;18.426;2023-02-16T13:11:29;50.30;;;19.02;;
77105;SDS011;66057;54.718;18.426;2023-02-16T13:14:00;47.95;;;19.25;;
77105;SDS011;66057;54.718;18.426;2023-02-16T13:16:56;47.03;;;17.20;;
77105;SDS011;66057;54.718;18.426;2023-02-16T13:19:23;46.03;;;18.45;;
77105;SDS011;66057;54.718;18.426;2023-02-16T13:21:54;50.83;;;19.30;;
77105;SDS011;66057;54.718;18.426;2023-02-16T13:24:42;50.22;;;20.40;;
77105;SDS011;66057;54.718;18.426;2023-02-16T13:33:16;48.63;;;20.33;;
77105;SDS011;66057;54.718;18.426;2023-02-16T13:41:57;50.30;;;19.67;;
77105;SDS011;66057;54.718;18.426;2023-02-16T13:44:41;51.25;;;19.92;;
77105;SDS011;66057;54.718;18.426;2023-02-16T13:47:13;49.00;;;18.33;;
77105;SDS011;66057;54.718;18.426;2023-02-16T13:50:07;43.88;;;17.17;;
77105;SDS011;66057;54.718;18.426;2023-02-16T13:52:52;53.22;;;18.10;;
77105;SDS011;66057;54.718;18.426;2023-02-16T13:58:00;46.92;;;19.70;;
77105;SDS011;66057;54.718;18.426;2023-02-16T14:00:28;52.60;;;19.27;;
77105;SDS011;66057;54.718;18.426;2023-02-16T14:03:08;58.45;;;21.40;;
77105;SDS011;66057;54.718;18.426;2023-02-16T14:05:39;45.35;;;18.52;;
77105;SDS011;66057;54.718;18.426;2023-02-16T14:15:52;50.88;;;21.50;;
77105;SDS011;66057;54.718;18.426;2023-02-16T14:18:30;54.78;;;20.70;;
77105;SDS011;66057;54.718;18.426;2023-02-16T14:21:04;49.03;;;20.23;;
77105;SDS011;66057;54.718;18.426;2023-02-16T14:23:40;55.78;;;21.70;;
77105;SDS011;66057;54.718;18.426;2023-02-16T14:26:07;52.00;;;21.80;;
77105;SDS011;66057;54.718;18.426;2023-02-16T14:31:02;54.00;;;21.15;;
77105;SDS011;66057;54.718;18.426;2023-02-16T14:33:53;51.47;;;22.10;;
77105;SDS011;66057;54.718;18.426;2023-02-16T14:39:39;53.17;;;20.33;;
77105;SDS011;66057;54.718;18.426;2023-02-16T14:42:17;54.67;;;22.10;;
77105;SDS011;66057;54.718;18.426;2023-02-16T14:47:38;50.65;;;19.77;;
77105;SDS011;66057;54.718;18.426;2023-02-16T14:56:25;55.90;;;20.83;;
77105;SDS011;66057;54.718;18.426;2023-02-16T14:59:30;52.58;;;20.35;;
77105;SDS011;66057;54.718;18.426;2023-02-16T15:02:52;51.00;;;19.52;;
77105;SDS011;66057;54.718;18.426;2023-02-16T15:05:22;57.13;;;22.15;;
77105;SDS011;66057;54.718;18.426;2023-02-16T15:07:51;57.83;;;21.45;;
77105;SDS011;66057;54.718;18.426;2023-02-16T15:10:27;54.00;;;20.45;;
77105;SDS011;66057;54.718;18.426;2023-02-16T15:12:54;55.95;;;22.40;;
77105;SDS011;66057;54.718;18.426;2023-02-16T15:15:24;52.28;;;22.75;;
77105;SDS011;66057;54.718;18.426;2023-02-16T15:17:59;56.40;;;20.77;;
77105;SDS011;66057;54.718;18.426;2023-02-16T15:20:32;57.13;;;20.98;;
77105;SDS011;66057;54.718;18.426;2023-02-16T15:23:02;64.18;;;22.85;;
77105;SDS011;66057;54.718;18.426;2023-02-16T15:25:40;51.83;;;21.20;;
77105;SDS011;66057;54.718;18.426;2023-02-16T15:30:38;64.93;;;25.02;;
77105;SDS011;66057;54.718;18.426;2023-02-16T15:33:09;55.25;;;23.00;;
77105;SDS011;66057;54.718;18.426;2023-02-16T15:35:50;62.00;;;23.63;;
77105;SDS011;66057;54.718;18.426;2023-02-16T15:38:39;65.20;;;24.55;;
77105;SDS011;66057;54.718;18.426;2023-02-16T15:41:09;63.00;;;22.98;;
77105;SDS011;66057;54.718;18.426;2023-02-16T15:43:46;64.55;;;21.38;;
77105;SDS011;66057;54.718;18.426;2023-02-16T15:51:55;62.83;;;24.45;;
77105;SDS011;66057;54.718;18.426;2023-02-16T15:54:25;60.70;;;23.10;;
77105;SDS011;66057;54.718;18.426;2023-02-16T15:56:57;63.88;;;24.60;;
77105;SDS011;66057;54.718;18.426;2023-02-16T15:59:36;61.30;;;25.95;;
77105;SDS011;66057;54.718;18.426;2023-02-16T16:04:30;53.58;;;22.20;;
77105;SDS011;66057;54.718;18.426;2023-02-16T16:07:03;64.43;;;24.73;;
77105;SDS011;66057;54.718;18.426;2023-02-16T16:09:31;51.78;;;22.55;;
77105;SDS011;66057;54.718;18.426;2023-02-16T16:12:00;69.35;;;25.27;;
77105;SDS011;66057;54.718;18.426;2023-02-16T16:14:31;62.95;;;24.08;;
77105;SDS011;66057;54.718;18.426;2023-02-16T16:17:00;62.67;;;22.75;;
77105;SDS011;66057;54.718;18.426;2023-02-16T16:21:56;57.17;;;22.58;;
77105;SDS011;66057;54.718;18.426;2023-02-16T16:24:26;60.17;;;21.77;;
77105;SDS011;66057;54.718;18.426;2023-02-16T16:27:01;72.20;;;25.90;;
77105;SDS011;66057;54.718;18.426;2023-02-16T16:29:32;62.28;;;23.58;;
77105;SDS011;66057;54.718;18.426;2023-02-16T16:31:59;62.13;;;24.50;;
77105;SDS011;66057;54.718;18.426;2023-02-16T16:34:32;65.93;;;24.83;;
77105;SDS011;66057;54.718;18.426;2023-02-16T16:37:03;74.30;;;25.52;;
77105;SDS011;66057;54.718;18.426;2023-02-16T16:39:35;64.80;;;25.50;;
77105;SDS011;66057;54.718;18.426;2023-02-16T16:42:06;67.60;;;24.83;;
77105;SDS011;66057;54.718;18.426;2023-02-16T16:45:04;74.78;;;27.88;;
77105;SDS011;66057;54.718;18.426;2023-02-16T16:47:50;71.28;;;27.88;;
77105;SDS011;66057;54.718;18.426;2023-02-16T16:52:43;76.15;;;26.77;;
77105;SDS011;66057;54.718;18.426;2023-02-16T16:57:43;67.93;;;27.20;;
77105;SDS011;66057;54.718;18.426;2023-02-16T17:00:10;77.68;;;27.85;;
77105;SDS011;66057;54.718;18.426;2023-02-16T17:02:36;88.60;;;30.98;;
77105;SDS011;66057;54.718;18.426;2023-02-16T17:05:02;72.50;;;27.25;;
77105;SDS011;66057;54.718;18.426;2023-02-16T17:07:30;79.25;;;29.90;;
77105;SDS011;66057;54.718;18.426;2023-02-16T17:09:57;82.47;;;30.77;;
77105;SDS011;66057;54.718;18.426;2023-02-16T17:12:24;78.53;;;30.75;;
77105;SDS011;66057;54.718;18.426;2023-02-16T17:14:50;78.13;;;30.80;;
77105;SDS011;66057;54.718;18.426;2023-02-16T17:17:17;78.72;;;30.35;;
77105;SDS011;66057;54.718;18.426;2023-02-16T17:19:43;70.85;;;28.05;;
77105;SDS011;66057;54.718;18.426;2023-02-16T17:22:19;82.63;;;29.23;;
77105;SDS011;66057;54.718;18.426;2023-02-16T17:24:45;86.03;;;31.52;;
77105;SDS011;66057;54.718;18.426;2023-02-16T17:27:12;76.65;;;29.15;;
77105;SDS011;66057;54.718;18.426;2023-02-16T17:29:38;70.95;;;29.45;;